Aneta, ND

7:17 AM CST on January 29, 2015 (GMT -0600)
Grand Forks Air Force Base | Change Station
CLOSE
Current Station
Airport
Location: Grand Forks AFB,
Elevation: 912 ft
Nearby Weather Stations
Active Advisory: Special Statement Active Notice: Record Report

Elev 912 ft 47.96 °N, 97.40 °W | Updated 6 minutes ago

Overcast
Overcast
18 °F
Feels Like 1 °F
N
20
Wind Variable Wind from North
Gusts 25 mph

Today
High -- | Low -- °F
--% Chance of Precip.
Yesterday
High -- | Low -- °F
Precip. -- in
8:02 AM 5:27 PM
Waxing Gibbous, 74% visible
Pressure 30.37 in
Visibility 10.0 miles
Clouds Few 1200 ft
Overcast 1700 ft
Windchill 1 °F
Dew Point 10 °F
Humidity 73%
Rainfall 0.00 in
Snow Depth Not available.
UV 0 out of 12
Pollen .10 out of 12
Air Quality Not available.
Flu Activity Not available.
SPECI KRDR 291311Z AUTO 01017G22KT 10SM -SN FEW012 OVC017 M08/M12 A3037 RMK AO2 OVC V BKN

More Conditions Fewer Conditions

Pressure 30.37 in
Visibility 10.0 miles
Clouds Few 1200 ft
Overcast 1700 ft
Windchill 1 °F
Dew Point 10 °F
Humidity 73%
Rainfall 0.00 in
Snow Depth Not available.
UV 0 out of 12
Pollen .10 out of 12
Air Quality Not available.
Flu Activity Not available.
SPECI KRDR 291311Z AUTO 01017G22KT 10SM -SN FEW012 OVC017 M08/M12 A3037 RMK AO2 OVC V BKN

More Conditions Fewer Conditions

10-Day Weather Forecast

Almanac

Astronomy

Jan. 29, 2015 Rise Set
Actual Time
Civil Twilight
Nautical Twilight
Astronomical Twilight
Moon
Length of Visible Light
Length of Day
Tomorrow will be .
, % of the Moon is Illuminated

Today's Extremes

State Highs State Lows

Community

WunderPhotos

Upload Photos

1,791,426 photos uploaded!

WunderBlogs® & News

Nearby

Air Quality

  Air Quality AQ Index Pollutant
Not available.

Snow Depth

Station Depth Elevation

Earthquake Activity

City Distance Mag. Time & Date
Minimum magnitude displayed is 2.5.

Coastal Water Temperatures

Place Temperature

Nearby Weather Stations